Seahurst, Washington
Current Conditions -  °F | °C
As of 6:53 PM on Tuesday 25 Nov 2014 (Local Time) from KSEA Reporting Station
Overcast Overcast  
Wind Chill: 56°   Ceiling: 1500
Heat Index: 56°   Visibility: 10mi
Dew Point: 53°   Wind: 15mph
Humidity: 90%   Direction: 190°S
Pressure: 30.17"   Gusts: NA
Location:  47.47°N, 122.36°W
Report Text: KSEA 260253Z 19013KT 10SM FEW009 BKN015 OVC020 13/12 A3017 RMK AO2 SLP224 60001 T01330117 55003
Loading
Personal Weather Stations






























Interactive Weather Map New forecast layout! Learn more

10-Day Weather Forecast

Advertisements
Track Severe Weather on mobile